createdAt,value
2018-06-14T09:04:54.225Z,55.77
2018-06-14T09:07:24.087Z,55.90
2018-06-14T09:09:53.137Z,55.56
2018-06-14T09:12:22.159Z,55.23
2018-06-14T09:14:51.269Z,54.52
2018-06-14T09:17:20.325Z,52.94
2018-06-14T09:19:49.340Z,51.87
2018-06-14T09:22:18.423Z,53.81
2018-06-14T09:24:47.675Z,55.08
2018-06-14T09:27:16.746Z,55.61
2018-06-14T09:29:45.742Z,53.24
2018-06-14T09:32:14.783Z,53.17
2018-06-14T09:34:43.818Z,51.46
2018-06-14T09:37:12.862Z,51.85
2018-06-14T09:39:41.906Z,51.35
2018-06-14T09:42:10.951Z,52.64
2018-06-14T09:44:39.965Z,51.76
2018-06-14T09:47:08.947Z,50.33
2018-06-14T09:49:40.810Z,48.79
2018-06-14T09:52:11.558Z,46.86
2018-06-14T09:54:50.986Z,46.66
2018-06-14T09:57:20.020Z,45.45
2018-06-14T09:59:49.011Z,46.04
2018-06-14T10:02:18.139Z,44.96
2018-06-14T10:04:47.179Z,45.87
2018-06-14T10:07:16.193Z,46.28
2018-06-14T10:09:45.249Z,45.57
2018-06-14T10:12:14.239Z,44.79
2018-06-14T10:14:43.233Z,44.60
2018-06-14T10:17:12.211Z,43.36
2018-06-14T10:19:41.201Z,44.63
2018-06-14T10:22:10.240Z,44.86
2018-06-14T10:24:39.312Z,41.74
2018-06-14T10:27:08.310Z,40.13
2018-06-14T10:29:37.647Z,39.17
2018-06-14T10:32:06.653Z,40.55
2018-06-14T10:34:35.755Z,40.28
2018-06-14T10:37:04.745Z,40.57
2018-06-14T10:39:33.752Z,39.58
2018-06-14T10:42:02.831Z,38.88
2018-06-14T10:44:31.835Z,40.37
2018-06-14T10:47:00.835Z,42.26
2018-06-14T10:49:29.858Z,40.18
2018-06-14T10:51:58.949Z,38.62
2018-06-14T10:54:43.868Z,36.87
2018-06-14T10:57:12.879Z,37.51
2018-06-14T10:59:41.894Z,36.46
2018-06-14T11:02:10.881Z,39.76
2018-06-14T11:04:39.964Z,40.51
2018-06-14T11:07:08.977Z,42.06
2018-06-14T11:09:37.990Z,40.60
2018-06-14T11:12:07.059Z,40.39
2018-06-14T11:14:36.053Z,40.96
2018-06-14T11:17:05.069Z,42.53
2018-06-14T11:19:34.069Z,39.31
2018-06-14T11:22:03.186Z,38.62
2018-06-14T11:24:32.221Z,37.29
2018-06-14T11:27:01.254Z,36.57
2018-06-14T11:29:30.266Z,38.63
2018-06-14T11:31:59.455Z,36.66
2018-06-14T11:34:28.574Z,39.30
2018-06-14T11:36:57.566Z,38.28
2018-06-14T11:39:26.673Z,36.42
2018-06-14T11:41:56.051Z,36.94
2018-06-14T11:44:26.714Z,38.20
2018-06-14T11:46:55.767Z,38.54
2018-06-14T11:49:24.880Z,40.25
2018-06-14T11:51:53.891Z,38.86
2018-06-14T11:54:22.883Z,38.34
2018-06-14T11:56:51.913Z,38.79
2018-06-14T11:59:20.885Z,37.66
2018-06-14T12:01:49.953Z,35.90
2018-06-14T12:04:18.842Z,37.16
2018-06-14T12:06:47.823Z,37.36
2018-06-14T12:09:17.018Z,37.78
2018-06-14T12:11:46.016Z,35.68
2018-06-14T12:14:15.039Z,34.09
2018-06-14T12:16:44.139Z,32.29
2018-06-14T12:19:13.131Z,32.46
2018-06-14T12:21:42.140Z,30.85
2018-06-14T12:24:11.098Z,32.01
2018-06-14T12:26:40.130Z,33.27
2018-06-14T12:29:09.136Z,32.51
2018-06-14T12:31:38.218Z,31.72
2018-06-14T12:34:07.190Z,34.64
2018-06-14T12:36:36.311Z,33.78
2018-06-14T12:39:07.510Z,35.54
2018-06-14T12:41:36.539Z,35.58
2018-06-14T12:44:05.561Z,35.47
2018-06-14T12:46:34.612Z,32.17
2018-06-14T12:49:04.026Z,30.18
2018-06-14T12:51:33.407Z,31.53
2018-06-14T12:54:02.717Z,31.90
2018-06-14T12:56:31.734Z,31.62
2018-06-14T12:59:00.730Z,30.49
2018-06-14T13:01:29.859Z,31.28
2018-06-14T13:03:58.869Z,31.82
2018-06-14T13:06:27.819Z,33.58
2018-06-14T13:08:56.842Z,33.06
2018-06-14T13:11:26.262Z,36.90
2018-06-14T13:13:55.254Z,37.31
2018-06-14T13:16:24.278Z,35.19
2018-06-14T13:18:53.280Z,32.75
2018-06-14T13:21:22.278Z,33.08
2018-06-14T13:23:51.280Z,36.52
2018-06-14T13:26:20.290Z,35.00
2018-06-14T13:28:49.299Z,33.66
2018-06-14T13:31:18.796Z,31.36
2018-06-14T13:33:47.793Z,33.48
2018-06-14T13:36:21.332Z,33.28
2018-06-14T13:38:50.415Z,35.99
2018-06-14T13:41:19.414Z,36.22
2018-06-14T13:43:48.414Z,37.49
2018-06-14T13:46:17.478Z,37.51
2018-06-14T13:48:46.529Z,37.02
2018-06-14T13:51:15.520Z,35.57
2018-06-14T13:53:44.513Z,33.79
2018-06-14T13:56:13.539Z,32.25
2018-06-14T13:58:42.528Z,32.43
2018-06-14T14:01:11.663Z,34.12
2018-06-14T14:03:40.573Z,31.98
2018-06-14T14:06:09.553Z,32.70
2018-06-14T14:08:38.635Z,31.27
2018-06-14T14:11:07.589Z,32.00
2018-06-14T14:13:36.581Z,32.49
2018-06-14T14:16:05.615Z,33.71
2018-06-14T14:18:34.593Z,33.18
2018-06-14T14:21:04.046Z,35.22
2018-06-14T14:23:33.108Z,33.85
2018-06-14T14:26:02.121Z,33.41
2018-06-14T14:28:31.196Z,32.72
2018-06-14T14:31:00.738Z,33.04
2018-06-14T14:33:29.779Z,30.84
2018-06-14T14:35:58.842Z,30.58
2018-06-14T14:38:28.387Z,29.37
2018-06-14T14:40:57.382Z,31.76
2018-06-14T14:43:26.402Z,31.44
2018-06-14T14:45:55.434Z,32.01
2018-06-14T14:48:24.478Z,33.24
2018-06-14T14:50:53.465Z,33.68
2018-06-14T14:53:22.541Z,34.80
2018-06-14T14:55:51.501Z,35.60
2018-06-14T14:58:20.509Z,35.31
2018-06-14T15:00:49.824Z,36.61
2018-06-14T15:03:18.882Z,35.59
2018-06-14T15:05:47.863Z,35.80
2018-06-14T15:08:17.046Z,32.54
2018-06-14T15:10:46.011Z,32.62
2018-06-14T15:13:15.038Z,33.39
2018-06-14T15:15:43.999Z,33.86
2018-06-14T15:18:13.257Z,34.17
2018-06-14T15:20:42.217Z,33.29
2018-06-14T15:23:11.326Z,33.34
2018-06-14T15:25:40.387Z,34.12
2018-06-14T15:28:09.411Z,35.36
2018-06-14T15:30:38.464Z,34.15
2018-06-14T15:33:07.532Z,34.39
2018-06-14T15:35:36.556Z,38.04
2018-06-14T15:38:05.560Z,35.08
2018-06-14T15:40:34.547Z,35.76
2018-06-14T15:43:03.664Z,34.95
2018-06-14T15:45:32.632Z,34.54
2018-06-14T15:48:01.668Z,34.58
2018-06-14T15:50:30.751Z,33.46
2018-06-14T15:52:59.834Z,35.33
2018-06-14T15:56:00.546Z,36.18
2018-06-14T15:58:30.819Z,35.25
2018-06-14T16:01:00.030Z,37.07
2018-06-14T16:03:29.359Z,37.83
2018-06-14T16:05:58.364Z,38.38
2018-06-14T16:25:39.624Z,39.71
2018-06-14T16:28:08.528Z,40.29
2018-06-14T16:30:39.302Z,41.17
2018-06-14T16:33:09.010Z,41.53
2018-06-14T16:35:38.053Z,41.36
2018-06-14T16:38:07.375Z,41.19
2018-06-14T16:40:36.272Z,44.00
2018-06-14T16:46:19.650Z,41.72
2018-06-14T16:48:49.920Z,42.18
2018-06-14T16:51:22.315Z,42.78
2018-06-14T16:53:51.234Z,43.96
2018-06-14T16:56:21.104Z,42.30
2018-06-14T17:27:34.736Z,45.39
2018-06-14T17:30:04.229Z,45.47
2018-06-14T17:32:33.212Z,45.18
2018-06-14T17:35:02.154Z,44.91
2018-06-14T17:37:31.020Z,45.38
2018-06-14T17:39:59.932Z,45.75
2018-06-14T17:42:28.968Z,44.73
2018-06-14T17:44:57.940Z,46.47
2018-06-14T17:47:26.929Z,45.96
2018-06-14T17:49:55.864Z,46.11
2018-06-14T17:52:24.787Z,45.49
2018-06-14T17:54:53.693Z,46.86
2018-06-14T17:57:22.648Z,45.70
2018-06-14T17:59:51.547Z,45.28
2018-06-14T18:02:20.552Z,45.47
2018-06-14T18:04:49.502Z,47.54
2018-06-14T18:07:18.563Z,46.40
2018-06-14T18:09:48.028Z,46.25
2018-06-14T18:12:17.104Z,46.87
2018-06-14T18:14:46.096Z,49.42
2018-06-14T18:17:15.161Z,49.11
2018-06-14T18:19:44.087Z,49.14
2018-06-14T18:22:13.043Z,49.24
2018-06-14T18:24:41.993Z,51.07
2018-06-14T18:27:10.940Z,51.31
2018-06-14T18:29:39.856Z,50.75
2018-06-14T18:32:12.465Z,53.64
2018-06-14T18:34:42.366Z,52.92
2018-06-14T18:37:11.295Z,52.52
2018-06-14T18:39:40.283Z,55.65
2018-06-14T18:42:09.284Z,55.86
2018-06-14T18:44:38.255Z,55.13
2018-06-14T18:47:07.173Z,56.16
2018-06-14T18:49:36.182Z,56.76
2018-06-14T18:52:05.272Z,57.97
2018-06-14T18:54:34.187Z,58.29
2018-06-14T18:57:03.192Z,58.12
2018-06-14T18:59:32.167Z,59.03
2018-06-14T19:02:01.092Z,59.78
2018-06-14T19:04:30.055Z,60.50
2018-06-14T19:06:59.102Z,59.23
2018-06-14T19:09:28.011Z,59.00
2018-06-14T19:11:56.993Z,59.30
2018-06-14T19:14:25.948Z,59.03
2018-06-14T19:16:54.900Z,58.86
2018-06-14T19:19:23.827Z,58.45
2018-06-14T19:21:52.765Z,58.69
2018-06-14T19:24:21.782Z,59.54
2018-06-14T19:26:50.711Z,59.60
2018-06-14T19:29:19.677Z,58.32
2018-06-14T19:31:48.677Z,60.04
2018-06-14T19:34:17.619Z,60.33
2018-06-14T19:36:46.512Z,60.82
2018-06-14T19:39:15.625Z,61.85
2018-06-14T19:41:44.540Z,61.79
2018-06-14T19:44:13.586Z,62.23
2018-06-14T19:46:42.564Z,62.68
2018-06-14T19:49:11.539Z,62.96
2018-06-14T19:51:40.506Z,62.64
2018-06-14T19:54:09.415Z,62.79
2018-06-14T20:03:36.048Z,64.24
2018-06-14T20:06:05.101Z,65.10
2018-06-14T20:08:34.055Z,65.21
2018-06-14T20:11:03.062Z,65.98
2018-06-14T20:13:32.122Z,65.83
2018-06-14T20:16:01.082Z,65.20
2018-06-14T20:18:30.047Z,65.54
2018-06-14T20:20:59.101Z,66.29
2018-06-14T20:23:28.178Z,65.59
2018-06-14T20:25:57.145Z,67.35
2018-06-14T20:28:26.139Z,67.51
2018-06-14T20:30:55.261Z,67.39
2018-06-14T20:33:24.212Z,67.59
2018-06-14T20:35:53.169Z,67.52
2018-06-14T20:38:22.168Z,68.88
2018-06-14T20:40:51.141Z,68.53
2018-06-14T20:43:20.108Z,68.55
2018-06-14T20:45:49.284Z,69.40
2018-06-14T20:48:18.278Z,68.21
2018-06-14T20:50:47.241Z,68.68
2018-06-14T20:53:16.225Z,68.74
2018-06-14T20:55:45.215Z,68.85
2018-06-14T20:58:14.262Z,69.30
2018-06-14T21:00:43.264Z,69.09
2018-06-14T21:03:12.349Z,68.21
2018-06-14T21:05:41.343Z,69.20
2018-06-14T21:08:10.397Z,69.61
2018-06-14T21:10:39.479Z,69.88
2018-06-14T21:13:08.464Z,70.19
2018-06-14T21:15:37.487Z,70.49
2018-06-14T21:18:06.439Z,70.05
2018-06-14T21:20:35.427Z,69.85
2018-06-14T21:23:04.529Z,70.29
2018-06-14T21:25:33.525Z,69.91
2018-06-14T21:28:02.546Z,70.41
2018-06-14T21:30:31.526Z,70.78
2018-06-14T21:33:00.499Z,70.91
2018-06-14T21:35:29.650Z,70.98
2018-06-14T21:37:58.714Z,71.09
2018-06-14T21:40:27.771Z,71.07
2018-06-14T21:42:56.761Z,71.98
2018-06-14T21:45:25.739Z,72.27
2018-06-14T21:47:54.722Z,72.86
2018-06-14T21:50:23.710Z,71.96
2018-06-14T21:52:52.686Z,73.03
2018-06-14T21:55:21.677Z,73.99
2018-06-14T21:57:50.750Z,73.74
2018-06-14T22:00:21.784Z,72.92
2018-06-14T22:02:56.120Z,74.33
2018-06-14T22:05:25.101Z,73.92
2018-06-14T22:07:54.110Z,73.73
2018-06-14T22:10:23.117Z,74.48
2018-06-14T22:12:52.104Z,74.49
2018-06-14T22:15:21.286Z,75.12
2018-06-14T22:17:50.730Z,74.58
2018-06-14T22:20:19.750Z,75.23
2018-06-14T22:22:48.738Z,75.62
2018-06-14T22:25:17.854Z,75.35
2018-06-14T22:27:46.878Z,75.46
2018-06-14T22:30:16.450Z,75.56
2018-06-14T22:32:46.403Z,76.36
2018-06-14T22:35:26.955Z,76.02
2018-06-14T22:37:56.388Z,76.15
2018-06-14T22:40:26.049Z,76.85
2018-06-14T22:42:55.007Z,76.34
2018-06-14T22:45:24.010Z,76.70
2018-06-14T22:47:52.972Z,76.98
2018-06-14T22:50:33.512Z,77.92
2018-06-14T22:53:04.933Z,77.20
2018-06-14T22:55:33.918Z,78.22
2018-06-14T22:58:02.909Z,77.72
2018-06-14T23:01:50.643Z,76.99
2018-06-14T23:04:23.967Z,77.36
2018-06-14T23:06:52.992Z,77.01
2018-06-14T23:10:35.324Z,77.14
2018-06-14T23:13:04.934Z,78.07
2018-06-14T23:15:34.128Z,78.98
2018-06-14T23:18:03.128Z,79.41
2018-06-14T23:20:32.998Z,78.90
2018-06-14T23:23:02.568Z,79.04
2018-06-14T23:25:32.212Z,79.08
2018-06-14T23:28:01.189Z,79.77
2018-06-14T23:30:30.279Z,79.89
2018-06-14T23:32:59.429Z,80.13
2018-06-14T23:35:28.558Z,80.59
2018-06-14T23:37:57.577Z,80.61
2018-06-14T23:40:26.573Z,80.32
2018-06-14T23:42:55.544Z,80.36
2018-06-14T23:45:24.626Z,80.99
2018-06-14T23:47:53.739Z,81.03
2018-06-14T23:50:22.715Z,81.29
2018-06-14T23:52:51.911Z,81.46
2018-06-14T23:55:20.907Z,81.09
2018-06-14T23:57:49.910Z,82.07
